createdAt,value
2018-06-23T00:01:43.369Z,101305.00
2018-06-23T00:04:12.481Z,101294.00
2018-06-23T00:06:41.694Z,101309.00
2018-06-23T00:09:10.798Z,101306.00
2018-06-23T00:11:39.923Z,101298.00
2018-06-23T00:14:09.074Z,101303.00
2018-06-23T00:16:38.253Z,101292.00
2018-06-23T00:19:07.550Z,101289.00
2018-06-23T00:21:36.750Z,101285.00
2018-06-23T00:24:06.249Z,101286.00
2018-06-23T00:26:35.358Z,101290.00
2018-06-23T00:29:04.511Z,101287.00
2018-06-23T00:31:33.678Z,101286.00
2018-06-23T00:34:02.784Z,101280.00
2018-06-23T00:36:31.933Z,101288.00
2018-06-23T00:39:01.098Z,101282.00
2018-06-23T00:41:30.307Z,101276.00
2018-06-23T00:43:59.451Z,101283.00
2018-06-23T00:46:28.633Z,101293.00
2018-06-23T00:48:57.786Z,101278.00
2018-06-23T00:51:27.019Z,101271.00
2018-06-23T00:53:56.187Z,101287.00
2018-06-23T00:56:25.373Z,101293.00
2018-06-23T00:59:11.705Z,101286.00
2018-06-23T01:01:40.854Z,101275.00
2018-06-23T01:04:10.021Z,101284.00
2018-06-23T01:06:39.150Z,101276.00
2018-06-23T01:09:09.935Z,101275.00
2018-06-23T01:11:39.191Z,101278.00
2018-06-23T01:14:08.297Z,101288.00
2018-06-23T01:16:37.438Z,101292.00
2018-06-23T01:19:06.629Z,101281.00
2018-06-23T01:21:35.815Z,101285.00
2018-06-23T01:24:04.896Z,101289.00
2018-06-23T01:26:34.033Z,101288.00
2018-06-23T01:29:03.215Z,101275.00
2018-06-23T01:31:32.359Z,101273.00
2018-06-23T01:34:01.523Z,101266.00
2018-06-23T01:36:30.745Z,101265.00
2018-06-23T01:38:59.870Z,101272.00
2018-06-23T01:41:29.146Z,101271.00
2018-06-23T01:43:58.323Z,101271.00
2018-06-23T01:46:27.472Z,101263.00
2018-06-23T01:48:56.667Z,101266.00
2018-06-23T01:51:25.785Z,101250.00
2018-06-23T01:53:54.945Z,101269.00
2018-06-23T01:56:24.133Z,101275.00
2018-06-23T01:58:53.318Z,101264.00
2018-06-23T02:01:22.499Z,101266.00
2018-06-23T02:03:51.635Z,101260.00
2018-06-23T02:06:20.763Z,101263.00
2018-06-23T02:08:49.974Z,101257.00
2018-06-23T02:11:19.117Z,101263.00
2018-06-23T02:13:48.220Z,101260.00
2018-06-23T02:16:22.641Z,101261.00
2018-06-23T02:18:57.057Z,101274.00
2018-06-23T02:21:31.426Z,101259.00
2018-06-23T02:24:05.858Z,101263.00
2018-06-23T02:26:40.434Z,101268.00
2018-06-23T02:29:14.892Z,101269.00
2018-06-23T02:31:49.407Z,101274.00
2018-06-23T02:34:23.864Z,101267.00
2018-06-23T02:36:53.551Z,101274.00
2018-06-23T02:39:22.748Z,101273.00
2018-06-23T02:41:51.861Z,101281.00
2018-06-23T02:44:21.131Z,101273.00
2018-06-23T02:46:50.287Z,101274.00
2018-06-23T02:49:19.460Z,101271.00
2018-06-23T02:51:48.569Z,101276.00
2018-06-23T02:54:17.682Z,101281.00
2018-06-23T02:56:46.830Z,101292.00
2018-06-23T02:59:19.097Z,101281.00
2018-06-23T03:01:49.733Z,101286.00
2018-06-23T03:04:19.425Z,101274.00
2018-06-23T03:06:48.741Z,101283.00
2018-06-23T03:09:17.917Z,101286.00
2018-06-23T03:11:47.041Z,101286.00
2018-06-23T03:14:16.130Z,101298.00
2018-06-23T03:16:45.252Z,101289.00
2018-06-23T03:19:14.365Z,101287.00
2018-06-23T03:21:43.542Z,101286.00
2018-06-23T03:24:12.633Z,101294.00
2018-06-23T03:26:41.765Z,101287.00
2018-06-23T03:29:10.849Z,101294.00
2018-06-23T03:31:40.011Z,101285.00
2018-06-23T03:34:09.128Z,101290.00
2018-06-23T03:36:38.308Z,101286.00
2018-06-23T03:39:10.386Z,101279.00
2018-06-23T03:41:39.670Z,101282.00
2018-06-23T03:44:08.800Z,101288.00
2018-06-23T03:46:37.930Z,101290.00
2018-06-23T03:49:07.111Z,101283.00
2018-06-23T03:51:36.335Z,101286.00
2018-06-23T03:54:05.512Z,101285.00
2018-06-23T03:56:34.701Z,101286.00
2018-06-23T03:59:03.812Z,101281.00
2018-06-23T04:01:32.921Z,101283.00
2018-06-23T04:04:02.122Z,101287.00
2018-06-23T04:06:31.241Z,101297.00
2018-06-23T04:09:00.395Z,101289.00
2018-06-23T04:11:29.623Z,101293.00
2018-06-23T04:13:58.708Z,101285.00
2018-06-23T04:16:27.830Z,101296.00
2018-06-23T04:18:58.426Z,101295.00
2018-06-23T04:21:30.585Z,101286.00
2018-06-23T04:24:00.043Z,101298.00
2018-06-23T04:26:29.731Z,101283.00
2018-06-23T04:28:59.011Z,101284.00
2018-06-23T04:31:28.141Z,101280.00
2018-06-23T04:33:57.286Z,101273.00
2018-06-23T04:36:26.515Z,101267.00
2018-06-23T04:38:55.729Z,101257.00
2018-06-23T04:41:24.884Z,101270.00
2018-06-23T04:43:54.069Z,101266.00
2018-06-23T04:46:23.198Z,101277.00
2018-06-23T04:48:53.176Z,101282.00
2018-06-23T04:51:22.319Z,101270.00
2018-06-23T04:53:51.459Z,101274.00
2018-06-23T04:56:20.591Z,101267.00
2018-06-23T04:58:50.555Z,101283.00
2018-06-23T05:01:20.638Z,101274.00
2018-06-23T05:03:49.872Z,101304.00
2018-06-23T05:06:19.035Z,101285.00
2018-06-23T05:08:48.515Z,101288.00
2018-06-23T05:11:17.636Z,101292.00
2018-06-23T05:13:46.834Z,101280.00
2018-06-23T05:16:16.068Z,101287.00
2018-06-23T05:18:45.524Z,101291.00
2018-06-23T05:21:14.680Z,101283.00
2018-06-23T05:23:43.862Z,101262.00
2018-06-23T05:26:13.038Z,101285.00
2018-06-23T05:28:42.249Z,101280.00
2018-06-23T05:31:11.444Z,101274.00
2018-06-23T05:33:41.436Z,101279.00
2018-06-23T05:36:10.559Z,101284.00
2018-06-23T05:38:39.902Z,101292.00
2018-06-23T05:41:09.106Z,101284.00
2018-06-23T05:43:38.286Z,101292.00
2018-06-23T05:46:07.490Z,101277.00
2018-06-23T05:48:36.631Z,101264.00
2018-06-23T05:51:05.822Z,101279.00
2018-06-23T05:53:35.012Z,101276.00
2018-06-23T05:56:04.153Z,101280.00
2018-06-23T05:58:33.464Z,101280.00
2018-06-23T06:01:02.562Z,101281.00
2018-06-23T06:03:31.804Z,101291.00
2018-06-23T06:06:01.020Z,101285.00
2018-06-23T06:08:31.112Z,101279.00
2018-06-23T06:11:00.771Z,101279.00
2018-06-23T06:13:29.938Z,101292.00
2018-06-23T06:15:59.134Z,101290.00
2018-06-23T06:18:28.974Z,101291.00
2018-06-23T06:20:58.094Z,101285.00
2018-06-23T06:23:27.525Z,101274.00
2018-06-23T06:25:56.958Z,101280.00
2018-06-23T06:28:26.175Z,101285.00
2018-06-23T06:30:55.362Z,101283.00
2018-06-23T06:33:24.514Z,101276.00
2018-06-23T06:35:54.428Z,101281.00
2018-06-23T06:38:23.582Z,101280.00
2018-06-23T06:40:52.776Z,101284.00
2018-06-23T06:43:21.994Z,101282.00
2018-06-23T06:45:51.782Z,101287.00
2018-06-23T06:48:20.997Z,101286.00
2018-06-23T06:50:50.234Z,101296.00
2018-06-23T06:53:19.394Z,101285.00
2018-06-23T06:55:48.536Z,101297.00
2018-06-23T06:58:17.723Z,101290.00
2018-06-23T07:00:46.887Z,101292.00
2018-06-23T07:03:16.155Z,101289.00
2018-06-23T07:05:45.244Z,101295.00
2018-06-23T07:08:14.427Z,101302.00
2018-06-23T07:10:43.527Z,101315.00
2018-06-23T07:13:13.096Z,101321.00
2018-06-23T07:15:43.717Z,101317.00
2018-06-23T07:18:13.844Z,101318.00
2018-06-23T07:20:43.033Z,101319.00
2018-06-23T07:23:13.375Z,101321.00
2018-06-23T07:25:42.549Z,101310.00
2018-06-23T07:28:11.755Z,101306.00
2018-06-23T07:30:41.068Z,101305.00
2018-06-23T07:33:10.147Z,101302.00
2018-06-23T07:35:39.309Z,101305.00
2018-06-23T07:38:08.435Z,101307.00
2018-06-23T07:40:37.717Z,101289.00
2018-06-23T07:43:07.062Z,101291.00
2018-06-23T07:45:36.189Z,101296.00
2018-06-23T07:48:05.473Z,101291.00
2018-06-23T07:50:34.643Z,101288.00
2018-06-23T07:53:03.951Z,101285.00
2018-06-23T07:55:33.233Z,101286.00
2018-06-23T07:58:03.269Z,101299.00
2018-06-23T08:00:32.470Z,101288.00
2018-06-23T08:03:01.659Z,101282.00
2018-06-23T08:05:30.921Z,101285.00
2018-06-23T08:08:00.376Z,101278.00
2018-06-23T08:10:29.546Z,101268.00
2018-06-23T08:12:59.505Z,101268.00
2018-06-23T08:15:28.628Z,101272.00
2018-06-23T08:17:57.781Z,101273.00
2018-06-23T08:20:26.988Z,101260.00
2018-06-23T08:22:56.140Z,101264.00
2018-06-23T08:25:25.469Z,101258.00
2018-06-23T08:27:54.619Z,101262.00
2018-06-23T08:30:23.909Z,101273.00
2018-06-23T08:32:53.093Z,101269.00
2018-06-23T08:35:22.294Z,101269.00
2018-06-23T08:37:51.512Z,101266.00
2018-06-23T08:40:20.634Z,101266.00
2018-06-23T08:42:49.773Z,101272.00
2018-06-23T08:45:19.114Z,101263.00
2018-06-23T08:47:48.167Z,101270.00
2018-06-23T08:50:17.320Z,101260.00
2018-06-23T08:52:46.459Z,101278.00
2018-06-23T08:55:15.651Z,101271.00
2018-06-23T08:57:44.860Z,101265.00
2018-06-23T09:00:14.163Z,101268.00
2018-06-23T09:02:43.371Z,101264.00
2018-06-23T09:05:12.577Z,101261.00
2018-06-23T09:07:41.716Z,101252.00
2018-06-23T09:10:10.869Z,101259.00
2018-06-23T09:12:40.015Z,101258.00
2018-06-23T09:15:09.149Z,101265.00
2018-06-23T09:17:38.425Z,101252.00
2018-06-23T09:20:07.522Z,101251.00
2018-06-23T09:22:36.667Z,101238.00
2018-06-23T09:25:06.021Z,101250.00
2018-06-23T09:27:35.162Z,101245.00
2018-06-23T09:30:04.415Z,101243.00
2018-06-23T09:32:33.579Z,101248.00
2018-06-23T09:35:02.771Z,101242.00
2018-06-23T09:37:31.890Z,101245.00
2018-06-23T09:40:01.066Z,101248.00
2018-06-23T09:42:30.257Z,101233.00
2018-06-23T09:44:59.359Z,101243.00
2018-06-23T09:47:28.493Z,101241.00
2018-06-23T09:49:57.634Z,101237.00
2018-06-23T09:52:26.783Z,101238.00
2018-06-23T09:54:55.900Z,101235.00
2018-06-23T09:57:24.992Z,101238.00
2018-06-23T09:59:54.164Z,101236.00
2018-06-23T10:02:23.272Z,101239.00
2018-06-23T10:04:52.475Z,101237.00
2018-06-23T10:07:21.755Z,101245.00
2018-06-23T10:09:50.813Z,101242.00
2018-06-23T10:12:19.964Z,101244.00
2018-06-23T10:14:49.053Z,101249.00
2018-06-23T10:17:18.299Z,101238.00
2018-06-23T10:19:47.454Z,101237.00
2018-06-23T10:22:16.565Z,101235.00
2018-06-23T10:24:45.722Z,101225.00
2018-06-23T10:27:14.963Z,101238.00
2018-06-23T10:29:44.122Z,101215.00
2018-06-23T10:32:13.285Z,101225.00
2018-06-23T10:34:42.350Z,101211.00
2018-06-23T10:37:11.464Z,101213.00
2018-06-23T10:39:40.650Z,101211.00
2018-06-23T10:42:09.767Z,101220.00
2018-06-23T10:44:39.090Z,101210.00
2018-06-23T10:47:08.289Z,101211.00
2018-06-23T10:49:37.472Z,101208.00
2018-06-23T10:52:06.621Z,101215.00
2018-06-23T10:54:35.717Z,101219.00
2018-06-23T10:57:04.887Z,101218.00
2018-06-23T10:59:34.054Z,101215.00
2018-06-23T11:02:03.277Z,101218.00
2018-06-23T11:04:32.478Z,101215.00
2018-06-23T11:07:01.596Z,101208.00
2018-06-23T11:09:30.709Z,101211.00
2018-06-23T11:12:01.271Z,101205.00
2018-06-23T11:14:30.470Z,101205.00
2018-06-23T11:16:59.577Z,101206.00
2018-06-23T11:19:28.734Z,101202.00
2018-06-23T11:21:57.901Z,101197.00
2018-06-23T11:24:27.071Z,101199.00
2018-06-23T11:26:56.212Z,101204.00
2018-06-23T11:29:25.629Z,101213.00
2018-06-23T11:31:54.805Z,101210.00
2018-06-23T11:34:23.979Z,101210.00
2018-06-23T11:36:53.118Z,101216.00
2018-06-23T11:39:22.292Z,101215.00
2018-06-23T11:41:51.461Z,101212.00
2018-06-23T11:44:20.624Z,101209.00
2018-06-23T11:46:49.760Z,101211.00
2018-06-23T11:49:18.859Z,101200.00
2018-06-23T11:51:48.052Z,101206.00
2018-06-23T11:54:17.128Z,101201.00
2018-06-23T11:56:46.197Z,101197.00
2018-06-23T11:59:15.382Z,101207.00
2018-06-23T12:01:44.515Z,101200.00
2018-06-23T12:04:20.185Z,101197.00
2018-06-23T12:06:49.314Z,101198.00
2018-06-23T12:09:18.545Z,101200.00
2018-06-23T12:11:47.683Z,101182.00
2018-06-23T12:14:16.867Z,101199.00
2018-06-23T12:16:46.037Z,101197.00
2018-06-23T12:19:15.173Z,101187.00
2018-06-23T12:21:44.358Z,101202.00
2018-06-23T12:24:13.473Z,101203.00
2018-06-23T12:26:42.572Z,101193.00
2018-06-23T12:29:11.706Z,101202.00
2018-06-23T12:31:40.878Z,101211.00
2018-06-23T12:34:10.009Z,101213.00
2018-06-23T12:36:39.125Z,101207.00
2018-06-23T12:39:10.599Z,101235.00
2018-06-23T12:41:40.297Z,101218.00
2018-06-23T12:44:09.877Z,101221.00
2018-06-23T12:46:39.352Z,101219.00
2018-06-23T12:49:08.523Z,101229.00
2018-06-23T12:51:37.702Z,101219.00
2018-06-23T12:54:06.875Z,101221.00
2018-06-23T12:56:36.019Z,101222.00
2018-06-23T12:59:05.157Z,101204.00
2018-06-23T13:01:34.280Z,101204.00
2018-06-23T13:04:03.428Z,101207.00
2018-06-23T13:06:32.644Z,101209.00
2018-06-23T13:09:01.859Z,101194.00
2018-06-23T13:11:30.997Z,101201.00
2018-06-23T13:14:00.113Z,101198.00
2018-06-23T13:16:29.230Z,101197.00
2018-06-23T13:18:58.389Z,101189.00
2018-06-23T13:21:27.596Z,101192.00
2018-06-23T13:23:56.702Z,101198.00
2018-06-23T13:26:25.852Z,101209.00
2018-06-23T13:28:55.052Z,101227.00
2018-06-23T13:31:24.190Z,101208.00
2018-06-23T13:33:53.333Z,101218.00
2018-06-23T13:36:22.515Z,101227.00
2018-06-23T13:38:51.640Z,101238.00
2018-06-23T13:41:20.788Z,101233.00
2018-06-23T13:43:49.905Z,101227.00
2018-06-23T13:46:19.115Z,101221.00
2018-06-23T13:48:48.308Z,101224.00
2018-06-23T13:51:17.521Z,101218.00
2018-06-23T13:53:46.670Z,101230.00
2018-06-23T13:56:15.819Z,101236.00
2018-06-23T13:58:45.034Z,101237.00
2018-06-23T14:01:14.230Z,101230.00
2018-06-23T14:03:43.391Z,101233.00
2018-06-23T14:06:12.570Z,101229.00
2018-06-23T14:08:41.733Z,101228.00
2018-06-23T14:11:10.889Z,101235.00
2018-06-23T14:13:40.015Z,101224.00
2018-06-23T14:16:09.225Z,101222.00
2018-06-23T14:18:38.408Z,101230.00
2018-06-23T14:21:07.647Z,101222.00
2018-06-23T14:23:36.749Z,101227.00
2018-06-23T14:26:06.023Z,101221.00
2018-06-23T14:28:35.245Z,101218.00
2018-06-23T14:31:04.496Z,101222.00
2018-06-23T14:33:33.650Z,101230.00
2018-06-23T14:36:03.317Z,101233.00
2018-06-23T14:38:33.355Z,101224.00
2018-06-23T14:41:02.541Z,101240.00
2018-06-23T14:43:31.724Z,101238.00
2018-06-23T14:46:00.887Z,101252.00
2018-06-23T14:48:30.065Z,101247.00
2018-06-23T14:50:59.271Z,101248.00
2018-06-23T14:53:28.521Z,101246.00
2018-06-23T14:55:57.668Z,101242.00
2018-06-23T14:58:26.969Z,101238.00
2018-06-23T15:00:56.135Z,101242.00
2018-06-23T15:03:25.386Z,101239.00
2018-06-23T15:05:54.584Z,101231.00
2018-06-23T15:08:40.769Z,101246.00
2018-06-23T15:11:27.472Z,101249.00
2018-06-23T15:13:56.753Z,101266.00
2018-06-23T15:16:25.996Z,101272.00
2018-06-23T15:18:55.257Z,101277.00
2018-06-23T15:21:24.491Z,101269.00
2018-06-23T15:23:53.681Z,101263.00
2018-06-23T15:26:22.934Z,101260.00
2018-06-23T15:28:52.133Z,101256.00
2018-06-23T15:31:21.276Z,101265.00
2018-06-23T15:33:50.448Z,101271.00
2018-06-23T15:36:19.614Z,101266.00
2018-06-23T15:38:49.793Z,101285.00
2018-06-23T15:41:18.716Z,101284.00
2018-06-23T15:43:48.523Z,101288.00
2018-06-23T15:46:17.994Z,101278.00
2018-06-23T15:48:47.146Z,101276.00
2018-06-23T15:51:16.964Z,101276.00
2018-06-23T15:53:46.168Z,101278.00
2018-06-23T15:56:15.316Z,101278.00
2018-06-23T15:58:44.633Z,101279.00
2018-06-23T16:01:13.861Z,101272.00
2018-06-23T16:03:44.759Z,101259.00
2018-06-23T16:06:13.945Z,101269.00
2018-06-23T16:08:43.126Z,101278.00
2018-06-23T16:11:12.290Z,101259.00
2018-06-23T16:13:41.559Z,101262.00
2018-06-23T16:16:10.797Z,101263.00
2018-06-23T16:18:40.001Z,101252.00
2018-06-23T16:21:09.205Z,101260.00
2018-06-23T16:23:38.420Z,101257.00
2018-06-23T16:26:07.512Z,101256.00
2018-06-23T16:28:36.742Z,101250.00
2018-06-23T16:31:06.480Z,101248.00
2018-06-23T16:33:35.670Z,101257.00
2018-06-23T16:36:04.884Z,101241.00
2018-06-23T16:38:34.247Z,101241.00
2018-06-23T16:41:03.409Z,101248.00
2018-06-23T16:43:32.618Z,101248.00
2018-06-23T16:46:01.774Z,101246.00
2018-06-23T16:48:30.872Z,101255.00
2018-06-23T16:51:00.056Z,101251.00
2018-06-23T16:53:29.232Z,101250.00
2018-06-23T16:55:58.358Z,101254.00
2018-06-23T16:58:27.665Z,101256.00
2018-06-23T17:00:56.874Z,101255.00
2018-06-23T17:03:26.426Z,101257.00
2018-06-23T17:05:55.665Z,101251.00
2018-06-23T17:08:24.849Z,101265.00
2018-06-23T17:10:53.997Z,101261.00
2018-06-23T17:13:23.180Z,101261.00
2018-06-23T17:15:52.385Z,101263.00
2018-06-23T17:18:21.555Z,101256.00
2018-06-23T17:20:50.684Z,101251.00
2018-06-23T17:23:19.824Z,101249.00
2018-06-23T17:25:48.994Z,101248.00
2018-06-23T17:28:18.167Z,101248.00
2018-06-23T17:30:47.363Z,101257.00
2018-06-23T17:33:16.491Z,101247.00
2018-06-23T17:35:45.595Z,101257.00
2018-06-23T17:38:14.757Z,101256.00
2018-06-23T17:40:43.881Z,101251.00
2018-06-23T17:43:13.090Z,101262.00
2018-06-23T17:45:42.291Z,101255.00
2018-06-23T17:48:11.485Z,101256.00
2018-06-23T17:50:40.637Z,101253.00
2018-06-23T17:53:09.875Z,101255.00
2018-06-23T17:55:39.057Z,101250.00
2018-06-23T17:58:08.273Z,101254.00
2018-06-23T18:00:37.455Z,101256.00
2018-06-23T18:03:06.707Z,101257.00
2018-06-23T18:05:35.903Z,101255.00
2018-06-23T18:08:05.020Z,101253.00
2018-06-23T18:10:34.209Z,101258.00
2018-06-23T18:13:03.395Z,101250.00
2018-06-23T18:15:32.553Z,101249.00
2018-06-23T18:18:01.700Z,101247.00
2018-06-23T18:20:30.843Z,101254.00
2018-06-23T18:22:59.994Z,101256.00
2018-06-23T18:25:29.125Z,101253.00
2018-06-23T18:27:58.299Z,101257.00
2018-06-23T18:30:27.521Z,101252.00
2018-06-23T18:32:56.694Z,101257.00
2018-06-23T18:35:25.883Z,101262.00
2018-06-23T18:37:54.990Z,101255.00
2018-06-23T18:40:24.137Z,101259.00
2018-06-23T18:42:53.348Z,101264.00
2018-06-23T18:45:22.494Z,101260.00
2018-06-23T18:47:51.643Z,101263.00
2018-06-23T18:50:20.781Z,101258.00
2018-06-23T18:52:49.948Z,101266.00
2018-06-23T18:55:19.158Z,101260.00
2018-06-23T18:57:48.501Z,101267.00
2018-06-23T19:00:17.648Z,101263.00
2018-06-23T19:02:46.798Z,101262.00
2018-06-23T19:05:15.988Z,101257.00
2018-06-23T19:07:45.153Z,101270.00
2018-06-23T19:10:14.326Z,101266.00
2018-06-23T19:12:43.457Z,101269.00
2018-06-23T19:15:12.590Z,101266.00
2018-06-23T19:17:41.729Z,101271.00
2018-06-23T19:20:10.927Z,101271.00
2018-06-23T19:22:40.187Z,101271.00
2018-06-23T19:25:09.381Z,101274.00
2018-06-23T19:27:38.541Z,101276.00
2018-06-23T19:30:07.725Z,101273.00
2018-06-23T19:32:36.892Z,101283.00
2018-06-23T19:35:06.038Z,101284.00
2018-06-23T19:37:35.199Z,101280.00
2018-06-23T19:40:04.469Z,101280.00
2018-06-23T19:42:33.581Z,101276.00
2018-06-23T19:45:02.745Z,101285.00
2018-06-23T19:47:31.872Z,101288.00
2018-06-23T19:50:01.018Z,101297.00
2018-06-23T19:52:30.142Z,101296.00
2018-06-23T19:54:59.281Z,101294.00
2018-06-23T19:57:28.441Z,101294.00
2018-06-23T19:59:57.579Z,101296.00
2018-06-23T20:02:26.689Z,101293.00
2018-06-23T20:04:55.863Z,101300.00
2018-06-23T20:07:25.037Z,101304.00
2018-06-23T20:09:54.197Z,101305.00
2018-06-23T20:12:23.377Z,101302.00
2018-06-23T20:14:52.534Z,101299.00
2018-06-23T20:17:21.678Z,101301.00
2018-06-23T20:19:50.885Z,101304.00
2018-06-23T20:22:20.058Z,101302.00
2018-06-23T20:24:49.174Z,101296.00
2018-06-23T20:27:18.460Z,101295.00
2018-06-23T20:29:47.555Z,101298.00
2018-06-23T20:32:16.768Z,101303.00
2018-06-23T20:34:45.861Z,101305.00
2018-06-23T20:37:15.041Z,101305.00
2018-06-23T20:39:44.213Z,101295.00
2018-06-23T20:42:13.305Z,101301.00
2018-06-23T20:44:42.442Z,101296.00
2018-06-23T20:47:11.605Z,101303.00
2018-06-23T20:49:40.791Z,101296.00
2018-06-23T20:52:09.932Z,101301.00
2018-06-23T20:54:39.119Z,101298.00
2018-06-23T20:57:08.299Z,101304.00
2018-06-23T20:59:37.485Z,101296.00
2018-06-23T21:02:06.961Z,101299.00
2018-06-23T21:04:36.082Z,101302.00
2018-06-23T21:07:05.390Z,101296.00
2018-06-23T21:09:34.723Z,101306.00
2018-06-23T21:12:03.850Z,101300.00
2018-06-23T21:14:33.079Z,101295.00
2018-06-23T21:17:02.283Z,101294.00
2018-06-23T21:19:31.397Z,101295.00
2018-06-23T21:22:00.562Z,101296.00
2018-06-23T21:24:29.688Z,101300.00
2018-06-23T21:26:58.854Z,101291.00
2018-06-23T21:29:28.024Z,101296.00
2018-06-23T21:31:57.235Z,101295.00
2018-06-23T21:34:26.415Z,101294.00
2018-06-23T21:36:55.544Z,101294.00
2018-06-23T21:39:24.680Z,101298.00
2018-06-23T21:41:53.858Z,101292.00
2018-06-23T21:44:23.185Z,101306.00
2018-06-23T21:46:52.622Z,101297.00
2018-06-23T21:49:23.517Z,101307.00
2018-06-23T21:51:52.675Z,101306.00
2018-06-23T21:54:21.877Z,101306.00
2018-06-23T21:56:51.014Z,101310.00
2018-06-23T21:59:20.267Z,101297.00
2018-06-23T22:01:49.561Z,101293.00
2018-06-23T22:04:18.773Z,101296.00
2018-06-23T22:06:47.939Z,101288.00
2018-06-23T22:09:17.082Z,101289.00
2018-06-23T22:11:46.294Z,101294.00
2018-06-23T22:14:15.453Z,101292.00
2018-06-23T22:16:44.567Z,101278.00
2018-06-23T22:19:13.734Z,101282.00
2018-06-23T22:21:42.957Z,101289.00
2018-06-23T22:24:12.097Z,101281.00
2018-06-23T22:26:41.174Z,101288.00
2018-06-23T22:29:10.334Z,101292.00
2018-06-23T22:31:39.515Z,101285.00
2018-06-23T22:34:08.686Z,101290.00
2018-06-23T22:36:37.882Z,101291.00
2018-06-23T22:39:10.082Z,101293.00
2018-06-23T22:41:39.289Z,101285.00
2018-06-23T22:44:08.709Z,101286.00
2018-06-23T22:46:37.905Z,101288.00
2018-06-23T22:49:07.045Z,101280.00
2018-06-23T22:51:36.251Z,101278.00
2018-06-23T22:54:05.596Z,101284.00
2018-06-23T22:56:34.726Z,101278.00
2018-06-23T22:59:04.103Z,101282.00
2018-06-23T23:01:33.283Z,101282.00
2018-06-23T23:04:02.468Z,101281.00
2018-06-23T23:06:31.670Z,101270.00
2018-06-23T23:09:00.828Z,101278.00
2018-06-23T23:11:29.914Z,101285.00
2018-06-23T23:13:59.068Z,101285.00
2018-06-23T23:16:28.239Z,101283.00
2018-06-23T23:18:57.417Z,101283.00
2018-06-23T23:21:26.540Z,101286.00
2018-06-23T23:23:55.693Z,101279.00
2018-06-23T23:26:24.813Z,101285.00
2018-06-23T23:28:53.950Z,101277.00
2018-06-23T23:31:23.123Z,101279.00
2018-06-23T23:33:52.266Z,101265.00
2018-06-23T23:36:21.411Z,101269.00
2018-06-23T23:38:50.618Z,101261.00
2018-06-23T23:41:19.773Z,101262.00
2018-06-23T23:43:48.922Z,101267.00
2018-06-23T23:46:18.102Z,101263.00
2018-06-23T23:48:47.243Z,101263.00
2018-06-23T23:51:16.377Z,101257.00
2018-06-23T23:53:45.448Z,101266.00
2018-06-23T23:56:14.693Z,101261.00
2018-06-23T23:58:43.818Z,101257.00
